Kea, Greece
Current Conditions -  °F | °C
As of 9:20 PM on Tuesday 21 Oct 2014 (Local Time) from LGAV Reporting Station
Clear Clear  
Wind Chill: 63°   Ceiling: Unl
Heat Index: 63°   Visibility: 6mi
Dew Point: 50°   Wind: 5mph
Humidity: 63%   Direction: 240°WSW
Pressure: 29.91"   Gusts: NA
Location:  37.64°N, 24.34°E
Report Text: LGAV 211820Z 24004KT CAVOK 17/10 Q1013 NOSIG
Loading
Personal Weather Stations






























Interactive Weather Map
Tropical Storm Tracking
New forecast layout! Learn more

10-Day Weather Forecast

Advertisements
Track Severe Weather on mobile